sensor_id;sensor_type;location;lat;lon;timestamp;P1;durP1;ratioP1;P2;durP2;ratioP2
10293;SDS011;5192;50.328;7.610;2023-02-26T00:01:31;6.83;;;2.80;;
10293;SDS011;5192;50.328;7.610;2023-02-26T00:04:00;5.63;;;2.83;;
10293;SDS011;5192;50.328;7.610;2023-02-26T00:06:34;5.50;;;2.90;;
10293;SDS011;5192;50.328;7.610;2023-02-26T00:09:04;8.63;;;3.00;;
10293;SDS011;5192;50.328;7.610;2023-02-26T00:11:32;5.33;;;3.00;;
10293;SDS011;5192;50.328;7.610;2023-02-26T00:13:59;6.60;;;2.90;;
10293;SDS011;5192;50.328;7.610;2023-02-26T00:16:31;6.00;;;2.53;;
10293;SDS011;5192;50.328;7.610;2023-02-26T00:19:05;7.07;;;2.80;;
10293;SDS011;5192;50.328;7.610;2023-02-26T00:21:34;9.50;;;3.00;;
10293;SDS011;5192;50.328;7.610;2023-02-26T00:24:01;4.87;;;2.53;;
10293;SDS011;5192;50.328;7.610;2023-02-26T00:26:29;8.60;;;2.80;;
10293;SDS011;5192;50.328;7.610;2023-02-26T00:29:00;4.87;;;2.73;;
10293;SDS011;5192;50.328;7.610;2023-02-26T00:31:29;7.00;;;3.00;;
10293;SDS011;5192;50.328;7.610;2023-02-26T00:33:56;6.10;;;3.40;;
10293;SDS011;5192;50.328;7.610;2023-02-26T00:36:28;6.73;;;3.70;;
10293;SDS011;5192;50.328;7.610;2023-02-26T00:42:31;8.10;;;3.50;;
10293;SDS011;5192;50.328;7.610;2023-02-26T00:44:58;6.73;;;3.43;;
10293;SDS011;5192;50.328;7.610;2023-02-26T00:50:21;7.10;;;3.27;;
10293;SDS011;5192;50.328;7.610;2023-02-26T00:55:37;6.20;;;3.37;;
10293;SDS011;5192;50.328;7.610;2023-02-26T00:58:05;7.60;;;3.40;;
10293;SDS011;5192;50.328;7.610;2023-02-26T01:00:32;7.30;;;3.07;;
10293;SDS011;5192;50.328;7.610;2023-02-26T01:02:59;8.30;;;3.30;;
10293;SDS011;5192;50.328;7.610;2023-02-26T01:05:26;8.30;;;3.77;;
10293;SDS011;5192;50.328;7.610;2023-02-26T01:10:59;3.87;;;3.03;;
10293;SDS011;5192;50.328;7.610;2023-02-26T01:13:25;9.17;;;3.70;;
10293;SDS011;5192;50.328;7.610;2023-02-26T01:15:54;8.83;;;3.13;;
10293;SDS011;5192;50.328;7.610;2023-02-26T01:18:34;7.70;;;3.03;;
10293;SDS011;5192;50.328;7.610;2023-02-26T01:21:22;6.60;;;2.97;;
10293;SDS011;5192;50.328;7.610;2023-02-26T01:24:00;7.97;;;3.37;;
10293;SDS011;5192;50.328;7.610;2023-02-26T01:26:34;4.40;;;2.87;;
10293;SDS011;5192;50.328;7.610;2023-02-26T01:29:00;8.20;;;3.17;;
10293;SDS011;5192;50.328;7.610;2023-02-26T01:34:33;4.03;;;2.67;;
10293;SDS011;5192;50.328;7.610;2023-02-26T01:49:31;7.17;;;2.93;;
10293;SDS011;5192;50.328;7.610;2023-02-26T01:52:02;6.43;;;2.67;;
10293;SDS011;5192;50.328;7.610;2023-02-26T01:54:31;8.50;;;3.07;;
10293;SDS011;5192;50.328;7.610;2023-02-26T01:59:49;3.53;;;2.23;;
10293;SDS011;5192;50.328;7.610;2023-02-26T02:02:20;4.13;;;2.37;;
10293;SDS011;5192;50.328;7.610;2023-02-26T02:04:49;4.10;;;2.77;;
10293;SDS011;5192;50.328;7.610;2023-02-26T02:07:17;4.70;;;2.73;;
10293;SDS011;5192;50.328;7.610;2023-02-26T02:09:44;5.53;;;2.53;;
10293;SDS011;5192;50.328;7.610;2023-02-26T02:21:08;4.47;;;2.40;;
10293;SDS011;5192;50.328;7.610;2023-02-26T02:24:16;5.83;;;2.53;;
10293;SDS011;5192;50.328;7.610;2023-02-26T02:33:17;4.47;;;2.53;;
10293;SDS011;5192;50.328;7.610;2023-02-26T02:35:53;3.83;;;2.53;;
10293;SDS011;5192;50.328;7.610;2023-02-26T02:41:21;4.03;;;2.47;;
10293;SDS011;5192;50.328;7.610;2023-02-26T02:43:56;6.00;;;2.50;;
10293;SDS011;5192;50.328;7.610;2023-02-26T02:46:28;5.73;;;2.87;;
10293;SDS011;5192;50.328;7.610;2023-02-26T02:55:17;4.87;;;2.50;;
10293;SDS011;5192;50.328;7.610;2023-02-26T02:57:50;5.20;;;2.70;;
10293;SDS011;5192;50.328;7.610;2023-02-26T03:00:33;3.23;;;2.23;;
10293;SDS011;5192;50.328;7.610;2023-02-26T03:05:36;3.57;;;2.50;;
10293;SDS011;5192;50.328;7.610;2023-02-26T03:08:04;2.60;;;2.30;;
10293;SDS011;5192;50.328;7.610;2023-02-26T03:10:37;6.33;;;2.53;;
10293;SDS011;5192;50.328;7.610;2023-02-26T03:13:04;8.13;;;2.50;;
10293;SDS011;5192;50.328;7.610;2023-02-26T03:15:37;6.17;;;2.93;;
10293;SDS011;5192;50.328;7.610;2023-02-26T03:18:39;6.43;;;2.60;;
10293;SDS011;5192;50.328;7.610;2023-02-26T03:21:46;6.60;;;2.70;;
10293;SDS011;5192;50.328;7.610;2023-02-26T03:24:22;2.70;;;1.90;;
10293;SDS011;5192;50.328;7.610;2023-02-26T03:27:42;3.13;;;2.17;;
10293;SDS011;5192;50.328;7.610;2023-02-26T03:30:01;5.77;;;2.87;;
10293;SDS011;5192;50.328;7.610;2023-02-26T03:35:55;5.03;;;2.93;;
10293;SDS011;5192;50.328;7.610;2023-02-26T03:38:53;4.30;;;2.70;;
10293;SDS011;5192;50.328;7.610;2023-02-26T03:41:38;3.03;;;2.43;;
10293;SDS011;5192;50.328;7.610;2023-02-26T03:44:18;5.57;;;2.53;;
10293;SDS011;5192;50.328;7.610;2023-02-26T03:47:14;5.50;;;2.80;;
10293;SDS011;5192;50.328;7.610;2023-02-26T03:52:30;6.70;;;2.80;;
10293;SDS011;5192;50.328;7.610;2023-02-26T03:55:16;5.50;;;2.63;;
10293;SDS011;5192;50.328;7.610;2023-02-26T03:57:47;6.03;;;2.80;;
10293;SDS011;5192;50.328;7.610;2023-02-26T04:00:15;4.83;;;3.20;;
10293;SDS011;5192;50.328;7.610;2023-02-26T04:02:47;5.27;;;2.93;;
10293;SDS011;5192;50.328;7.610;2023-02-26T04:05:42;4.73;;;2.80;;
10293;SDS011;5192;50.328;7.610;2023-02-26T04:08:13;5.47;;;2.87;;
10293;SDS011;5192;50.328;7.610;2023-02-26T04:10:40;4.57;;;2.30;;
10293;SDS011;5192;50.328;7.610;2023-02-26T04:13:09;2.33;;;2.10;;
10293;SDS011;5192;50.328;7.610;2023-02-26T04:15:34;5.13;;;2.43;;
10293;SDS011;5192;50.328;7.610;2023-02-26T04:18:03;3.90;;;2.40;;
10293;SDS011;5192;50.328;7.610;2023-02-26T04:20:30;4.77;;;2.50;;
10293;SDS011;5192;50.328;7.610;2023-02-26T04:22:57;6.57;;;2.83;;
10293;SDS011;5192;50.328;7.610;2023-02-26T04:25:24;5.83;;;2.77;;
10293;SDS011;5192;50.328;7.610;2023-02-26T04:27:52;4.60;;;2.40;;
10293;SDS011;5192;50.328;7.610;2023-02-26T04:30:18;6.27;;;3.00;;
10293;SDS011;5192;50.328;7.610;2023-02-26T04:32:45;5.53;;;2.83;;
10293;SDS011;5192;50.328;7.610;2023-02-26T04:35:11;4.97;;;3.10;;
10293;SDS011;5192;50.328;7.610;2023-02-26T04:37:38;4.50;;;2.93;;
10293;SDS011;5192;50.328;7.610;2023-02-26T04:40:04;3.07;;;2.60;;
10293;SDS011;5192;50.328;7.610;2023-02-26T04:42:32;3.93;;;2.63;;
10293;SDS011;5192;50.328;7.610;2023-02-26T04:44:57;6.47;;;2.60;;
10293;SDS011;5192;50.328;7.610;2023-02-26T04:47:24;6.17;;;2.80;;
10293;SDS011;5192;50.328;7.610;2023-02-26T04:49:52;4.60;;;2.30;;
10293;SDS011;5192;50.328;7.610;2023-02-26T04:52:20;7.97;;;2.70;;
10293;SDS011;5192;50.328;7.610;2023-02-26T04:54:46;3.70;;;2.40;;
10293;SDS011;5192;50.328;7.610;2023-02-26T04:57:14;4.10;;;2.57;;
10293;SDS011;5192;50.328;7.610;2023-02-26T04:59:42;3.53;;;2.20;;
10293;SDS011;5192;50.328;7.610;2023-02-26T05:02:08;4.40;;;2.87;;
10293;SDS011;5192;50.328;7.610;2023-02-26T05:04:35;5.67;;;2.50;;
10293;SDS011;5192;50.328;7.610;2023-02-26T05:07:03;3.13;;;2.80;;
10293;SDS011;5192;50.328;7.610;2023-02-26T05:09:30;5.93;;;3.27;;
10293;SDS011;5192;50.328;7.610;2023-02-26T05:11:57;5.63;;;2.97;;
10293;SDS011;5192;50.328;7.610;2023-02-26T05:14:24;3.43;;;2.50;;
10293;SDS011;5192;50.328;7.610;2023-02-26T05:16:52;4.30;;;2.67;;
10293;SDS011;5192;50.328;7.610;2023-02-26T05:19:17;4.47;;;2.70;;
10293;SDS011;5192;50.328;7.610;2023-02-26T05:21:44;3.13;;;2.10;;
10293;SDS011;5192;50.328;7.610;2023-02-26T05:24:11;3.80;;;2.50;;
10293;SDS011;5192;50.328;7.610;2023-02-26T05:26:39;4.63;;;2.60;;
10293;SDS011;5192;50.328;7.610;2023-02-26T05:29:06;3.43;;;2.50;;
10293;SDS011;5192;50.328;7.610;2023-02-26T05:31:31;3.20;;;2.60;;
10293;SDS011;5192;50.328;7.610;2023-02-26T05:33:59;5.40;;;3.10;;
10293;SDS011;5192;50.328;7.610;2023-02-26T05:36:28;4.63;;;2.73;;
10293;SDS011;5192;50.328;7.610;2023-02-26T05:38:55;7.10;;;3.17;;
10293;SDS011;5192;50.328;7.610;2023-02-26T05:41:22;3.40;;;2.40;;
10293;SDS011;5192;50.328;7.610;2023-02-26T05:43:51;3.60;;;2.30;;
10293;SDS011;5192;50.328;7.610;2023-02-26T05:46:19;4.57;;;2.70;;
10293;SDS011;5192;50.328;7.610;2023-02-26T05:48:47;3.30;;;2.30;;
10293;SDS011;5192;50.328;7.610;2023-02-26T05:51:16;4.00;;;2.60;;
10293;SDS011;5192;50.328;7.610;2023-02-26T05:53:42;5.47;;;2.87;;
10293;SDS011;5192;50.328;7.610;2023-02-26T05:56:11;6.17;;;2.80;;
10293;SDS011;5192;50.328;7.610;2023-02-26T05:58:59;4.27;;;2.73;;
10293;SDS011;5192;50.328;7.610;2023-02-26T06:01:27;3.93;;;2.70;;
10293;SDS011;5192;50.328;7.610;2023-02-26T06:03:55;5.97;;;3.00;;
10293;SDS011;5192;50.328;7.610;2023-02-26T06:06:22;7.07;;;3.00;;
10293;SDS011;5192;50.328;7.610;2023-02-26T06:08:49;4.10;;;2.97;;
10293;SDS011;5192;50.328;7.610;2023-02-26T06:11:15;4.37;;;2.50;;
10293;SDS011;5192;50.328;7.610;2023-02-26T06:13:43;4.53;;;2.97;;
10293;SDS011;5192;50.328;7.610;2023-02-26T06:16:11;6.33;;;2.90;;
10293;SDS011;5192;50.328;7.610;2023-02-26T06:18:38;4.33;;;2.93;;
10293;SDS011;5192;50.328;7.610;2023-02-26T06:21:05;5.70;;;2.83;;
10293;SDS011;5192;50.328;7.610;2023-02-26T06:23:32;4.37;;;2.80;;
10293;SDS011;5192;50.328;7.610;2023-02-26T06:26:00;4.97;;;2.73;;
10293;SDS011;5192;50.328;7.610;2023-02-26T06:28:27;8.43;;;3.37;;
10293;SDS011;5192;50.328;7.610;2023-02-26T06:30:56;6.23;;;3.20;;
10293;SDS011;5192;50.328;7.610;2023-02-26T06:33:23;5.37;;;3.00;;
10293;SDS011;5192;50.328;7.610;2023-02-26T06:35:51;11.37;;;4.23;;
10293;SDS011;5192;50.328;7.610;2023-02-26T06:38:19;4.87;;;3.37;;
10293;SDS011;5192;50.328;7.610;2023-02-26T06:40:46;7.07;;;3.47;;
10293;SDS011;5192;50.328;7.610;2023-02-26T06:43:13;4.90;;;2.97;;
10293;SDS011;5192;50.328;7.610;2023-02-26T06:45:40;8.43;;;3.20;;
10293;SDS011;5192;50.328;7.610;2023-02-26T06:48:07;5.40;;;3.00;;
10293;SDS011;5192;50.328;7.610;2023-02-26T06:50:35;4.70;;;3.30;;
10293;SDS011;5192;50.328;7.610;2023-02-26T06:53:01;4.60;;;3.50;;
10293;SDS011;5192;50.328;7.610;2023-02-26T06:55:27;7.77;;;3.43;;
10293;SDS011;5192;50.328;7.610;2023-02-26T06:57:56;6.23;;;3.20;;
10293;SDS011;5192;50.328;7.610;2023-02-26T07:00:24;6.27;;;3.50;;
10293;SDS011;5192;50.328;7.610;2023-02-26T07:02:51;4.37;;;3.33;;
10293;SDS011;5192;50.328;7.610;2023-02-26T07:05:18;5.93;;;3.40;;
10293;SDS011;5192;50.328;7.610;2023-02-26T07:07:45;6.57;;;3.47;;
10293;SDS011;5192;50.328;7.610;2023-02-26T07:10:11;7.07;;;3.63;;
10293;SDS011;5192;50.328;7.610;2023-02-26T07:12:38;5.50;;;3.53;;
10293;SDS011;5192;50.328;7.610;2023-02-26T07:15:05;6.00;;;3.77;;
10293;SDS011;5192;50.328;7.610;2023-02-26T07:17:32;6.87;;;3.60;;
10293;SDS011;5192;50.328;7.610;2023-02-26T07:19:58;7.37;;;4.00;;
10293;SDS011;5192;50.328;7.610;2023-02-26T07:22:31;5.80;;;4.33;;
10293;SDS011;5192;50.328;7.610;2023-02-26T07:24:58;6.93;;;4.13;;
10293;SDS011;5192;50.328;7.610;2023-02-26T07:27:26;6.63;;;4.23;;
10293;SDS011;5192;50.328;7.610;2023-02-26T07:29:55;7.30;;;4.77;;
10293;SDS011;5192;50.328;7.610;2023-02-26T07:32:22;7.23;;;4.10;;
10293;SDS011;5192;50.328;7.610;2023-02-26T07:34:49;7.43;;;4.50;;
10293;SDS011;5192;50.328;7.610;2023-02-26T07:37:16;9.40;;;4.93;;
10293;SDS011;5192;50.328;7.610;2023-02-26T07:39:44;7.03;;;5.00;;
10293;SDS011;5192;50.328;7.610;2023-02-26T07:42:09;6.93;;;4.70;;
10293;SDS011;5192;50.328;7.610;2023-02-26T07:44:36;6.23;;;4.40;;
10293;SDS011;5192;50.328;7.610;2023-02-26T07:47:03;8.43;;;5.03;;
10293;SDS011;5192;50.328;7.610;2023-02-26T07:49:30;6.40;;;4.27;;
10293;SDS011;5192;50.328;7.610;2023-02-26T07:52:00;6.97;;;4.90;;
10293;SDS011;5192;50.328;7.610;2023-02-26T07:54:27;6.13;;;3.83;;
10293;SDS011;5192;50.328;7.610;2023-02-26T07:56:55;4.90;;;4.00;;
10293;SDS011;5192;50.328;7.610;2023-02-26T07:59:22;4.93;;;4.00;;
10293;SDS011;5192;50.328;7.610;2023-02-26T08:01:48;6.00;;;4.13;;
10293;SDS011;5192;50.328;7.610;2023-02-26T08:04:16;6.47;;;4.33;;
10293;SDS011;5192;50.328;7.610;2023-02-26T08:06:43;7.17;;;4.07;;
10293;SDS011;5192;50.328;7.610;2023-02-26T08:09:10;6.27;;;4.10;;
10293;SDS011;5192;50.328;7.610;2023-02-26T08:11:36;6.23;;;4.53;;
10293;SDS011;5192;50.328;7.610;2023-02-26T08:14:06;7.20;;;4.63;;
10293;SDS011;5192;50.328;7.610;2023-02-26T08:16:33;6.03;;;3.93;;
10293;SDS011;5192;50.328;7.610;2023-02-26T08:19:00;6.83;;;3.57;;
10293;SDS011;5192;50.328;7.610;2023-02-26T08:21:27;4.40;;;3.30;;
10293;SDS011;5192;50.328;7.610;2023-02-26T08:23:56;6.03;;;3.37;;
10293;SDS011;5192;50.328;7.610;2023-02-26T08:26:23;4.90;;;3.30;;
10293;SDS011;5192;50.328;7.610;2023-02-26T08:28:50;5.13;;;3.50;;
10293;SDS011;5192;50.328;7.610;2023-02-26T08:31:17;5.43;;;3.37;;
10293;SDS011;5192;50.328;7.610;2023-02-26T08:33:44;4.70;;;3.30;;
10293;SDS011;5192;50.328;7.610;2023-02-26T08:36:12;3.90;;;2.47;;
10293;SDS011;5192;50.328;7.610;2023-02-26T08:38:39;4.47;;;2.70;;
10293;SDS011;5192;50.328;7.610;2023-02-26T08:41:06;5.97;;;2.80;;
10293;SDS011;5192;50.328;7.610;2023-02-26T08:43:34;6.67;;;2.80;;
10293;SDS011;5192;50.328;7.610;2023-02-26T08:46:00;4.63;;;2.70;;
10293;SDS011;5192;50.328;7.610;2023-02-26T08:48:27;5.33;;;2.83;;
10293;SDS011;5192;50.328;7.610;2023-02-26T08:50:54;3.57;;;2.37;;
10293;SDS011;5192;50.328;7.610;2023-02-26T08:53:28;3.83;;;2.43;;
10293;SDS011;5192;50.328;7.610;2023-02-26T08:55:56;6.23;;;3.47;;
10293;SDS011;5192;50.328;7.610;2023-02-26T08:58:24;3.90;;;2.57;;
10293;SDS011;5192;50.328;7.610;2023-02-26T09:00:52;5.60;;;2.67;;
10293;SDS011;5192;50.328;7.610;2023-02-26T09:03:18;5.07;;;2.57;;
10293;SDS011;5192;50.328;7.610;2023-02-26T09:05:46;3.40;;;2.60;;
10293;SDS011;5192;50.328;7.610;2023-02-26T09:08:13;5.27;;;2.87;;
10293;SDS011;5192;50.328;7.610;2023-02-26T09:10:41;4.73;;;2.43;;
10293;SDS011;5192;50.328;7.610;2023-02-26T09:13:07;5.17;;;2.50;;
10293;SDS011;5192;50.328;7.610;2023-02-26T09:15:35;3.77;;;2.23;;
10293;SDS011;5192;50.328;7.610;2023-02-26T09:18:03;3.77;;;2.60;;
10293;SDS011;5192;50.328;7.610;2023-02-26T09:20:30;2.20;;;2.00;;
10293;SDS011;5192;50.328;7.610;2023-02-26T09:22:55;3.57;;;2.20;;
10293;SDS011;5192;50.328;7.610;2023-02-26T09:25:23;2.70;;;2.00;;
10293;SDS011;5192;50.328;7.610;2023-02-26T09:27:49;2.73;;;1.93;;
10293;SDS011;5192;50.328;7.610;2023-02-26T09:30:16;3.53;;;1.77;;
10293;SDS011;5192;50.328;7.610;2023-02-26T09:32:46;3.60;;;1.87;;
10293;SDS011;5192;50.328;7.610;2023-02-26T09:35:14;2.50;;;1.80;;
10293;SDS011;5192;50.328;7.610;2023-02-26T09:37:42;1.60;;;1.50;;
10293;SDS011;5192;50.328;7.610;2023-02-26T09:40:10;1.80;;;1.70;;
10293;SDS011;5192;50.328;7.610;2023-02-26T09:43:07;2.33;;;1.20;;
10293;SDS011;5192;50.328;7.610;2023-02-26T09:45:53;2.03;;;1.43;;
10293;SDS011;5192;50.328;7.610;2023-02-26T09:48:26;5.20;;;1.73;;
10293;SDS011;5192;50.328;7.610;2023-02-26T09:50:56;1.97;;;1.13;;
10293;SDS011;5192;50.328;7.610;2023-02-26T09:53:32;2.43;;;1.20;;
10293;SDS011;5192;50.328;7.610;2023-02-26T09:56:10;1.17;;;1.00;;
10293;SDS011;5192;50.328;7.610;2023-02-26T09:58:42;6.50;;;1.80;;
10293;SDS011;5192;50.328;7.610;2023-02-26T10:04:20;2.93;;;0.97;;
10293;SDS011;5192;50.328;7.610;2023-02-26T10:13:05;1.17;;;0.90;;
10293;SDS011;5192;50.328;7.610;2023-02-26T10:16:06;0.93;;;0.70;;
10293;SDS011;5192;50.328;7.610;2023-02-26T10:18:58;0.77;;;0.70;;
10293;SDS011;5192;50.328;7.610;2023-02-26T10:21:44;0.80;;;0.80;;
10293;SDS011;5192;50.328;7.610;2023-02-26T10:24:28;2.03;;;0.83;;
10293;SDS011;5192;50.328;7.610;2023-02-26T10:27:08;1.87;;;1.00;;
10293;SDS011;5192;50.328;7.610;2023-02-26T10:35:31;4.40;;;1.20;;
10293;SDS011;5192;50.328;7.610;2023-02-26T10:38:10;1.97;;;1.03;;
10293;SDS011;5192;50.328;7.610;2023-02-26T10:43:41;2.33;;;1.13;;
10293;SDS011;5192;50.328;7.610;2023-02-26T10:49:13;1.17;;;0.83;;
10293;SDS011;5192;50.328;7.610;2023-02-26T10:52:14;2.10;;;0.80;;
10293;SDS011;5192;50.328;7.610;2023-02-26T10:57:49;1.03;;;0.83;;
10293;SDS011;5192;50.328;7.610;2023-02-26T11:00:37;1.40;;;0.80;;
10293;SDS011;5192;50.328;7.610;2023-02-26T11:03:06;1.93;;;0.90;;
10293;SDS011;5192;50.328;7.610;2023-02-26T11:05:35;1.43;;;0.87;;
10293;SDS011;5192;50.328;7.610;2023-02-26T11:11:04;2.27;;;1.00;;
10293;SDS011;5192;50.328;7.610;2023-02-26T11:13:32;1.17;;;0.80;;
10293;SDS011;5192;50.328;7.610;2023-02-26T11:16:03;2.00;;;1.17;;
10293;SDS011;5192;50.328;7.610;2023-02-26T11:18:38;1.50;;;0.87;;
10293;SDS011;5192;50.328;7.610;2023-02-26T11:21:23;1.10;;;0.80;;
10293;SDS011;5192;50.328;7.610;2023-02-26T11:23:57;0.80;;;0.80;;
10293;SDS011;5192;50.328;7.610;2023-02-26T11:26:38;1.97;;;0.90;;
10293;SDS011;5192;50.328;7.610;2023-02-26T11:29:12;1.37;;;0.97;;
10293;SDS011;5192;50.328;7.610;2023-02-26T11:32:15;0.60;;;0.60;;
10293;SDS011;5192;50.328;7.610;2023-02-26T11:34:49;0.93;;;0.80;;
10293;SDS011;5192;50.328;7.610;2023-02-26T11:37:20;0.90;;;0.70;;
10293;SDS011;5192;50.328;7.610;2023-02-26T11:39:55;1.17;;;0.77;;
10293;SDS011;5192;50.328;7.610;2023-02-26T11:42:25;1.00;;;0.80;;
10293;SDS011;5192;50.328;7.610;2023-02-26T11:44:55;1.23;;;0.97;;
10293;SDS011;5192;50.328;7.610;2023-02-26T11:47:25;1.47;;;1.07;;
10293;SDS011;5192;50.328;7.610;2023-02-26T11:49:59;1.27;;;0.80;;
10293;SDS011;5192;50.328;7.610;2023-02-26T11:58:18;1.13;;;1.00;;
10293;SDS011;5192;50.328;7.610;2023-02-26T12:00:47;1.27;;;0.90;;
10293;SDS011;5192;50.328;7.610;2023-02-26T12:03:19;1.10;;;1.00;;
10293;SDS011;5192;50.328;7.610;2023-02-26T12:05:49;1.47;;;0.97;;
10293;SDS011;5192;50.328;7.610;2023-02-26T12:08:25;1.13;;;0.93;;
10293;SDS011;5192;50.328;7.610;2023-02-26T12:32:18;1.53;;;1.00;;
10293;SDS011;5192;50.328;7.610;2023-02-26T12:35:15;1.33;;;0.97;;
10293;SDS011;5192;50.328;7.610;2023-02-26T12:38:07;1.83;;;1.00;;
10293;SDS011;5192;50.328;7.610;2023-02-26T12:44:13;1.20;;;1.03;;
10293;SDS011;5192;50.328;7.610;2023-02-26T12:47:24;1.70;;;1.20;;
10293;SDS011;5192;50.328;7.610;2023-02-26T13:02:23;2.93;;;1.13;;
10293;SDS011;5192;50.328;7.610;2023-02-26T13:05:11;0.83;;;0.80;;
10293;SDS011;5192;50.328;7.610;2023-02-26T13:14:08;2.10;;;0.97;;
10293;SDS011;5192;50.328;7.610;2023-02-26T13:17:01;2.80;;;1.20;;
10293;SDS011;5192;50.328;7.610;2023-02-26T13:19:51;1.97;;;1.43;;
10293;SDS011;5192;50.328;7.610;2023-02-26T13:22:36;2.70;;;1.50;;
10293;SDS011;5192;50.328;7.610;2023-02-26T13:25:35;3.13;;;1.50;;
10293;SDS011;5192;50.328;7.610;2023-02-26T13:28:19;1.30;;;1.10;;
10293;SDS011;5192;50.328;7.610;2023-02-26T13:31:08;1.30;;;1.13;;
10293;SDS011;5192;50.328;7.610;2023-02-26T13:33:57;3.83;;;2.33;;
10293;SDS011;5192;50.328;7.610;2023-02-26T13:36:32;1.70;;;1.03;;
10293;SDS011;5192;50.328;7.610;2023-02-26T13:45:06;3.17;;;1.20;;
10293;SDS011;5192;50.328;7.610;2023-02-26T13:48:25;1.77;;;1.20;;
10293;SDS011;5192;50.328;7.610;2023-02-26T13:51:26;2.80;;;1.50;;
10293;SDS011;5192;50.328;7.610;2023-02-26T14:05:52;1.10;;;1.00;;
10293;SDS011;5192;50.328;7.610;2023-02-26T14:11:26;1.00;;;0.90;;
10293;SDS011;5192;50.328;7.610;2023-02-26T14:22:22;1.20;;;1.10;;
10293;SDS011;5192;50.328;7.610;2023-02-26T14:25:14;1.83;;;1.23;;
10293;SDS011;5192;50.328;7.610;2023-02-26T14:31:15;2.33;;;1.27;;
10293;SDS011;5192;50.328;7.610;2023-02-26T14:33:47;2.03;;;1.10;;
10293;SDS011;5192;50.328;7.610;2023-02-26T14:36:45;1.97;;;0.90;;
10293;SDS011;5192;50.328;7.610;2023-02-26T14:39:29;3.27;;;1.20;;
10293;SDS011;5192;50.328;7.610;2023-02-26T14:42:12;2.27;;;1.10;;
10293;SDS011;5192;50.328;7.610;2023-02-26T14:45:27;2.27;;;1.10;;
10293;SDS011;5192;50.328;7.610;2023-02-26T14:47:59;1.10;;;1.00;;
10293;SDS011;5192;50.328;7.610;2023-02-26T14:50:44;2.60;;;1.00;;
10293;SDS011;5192;50.328;7.610;2023-02-26T15:02:26;1.57;;;1.10;;
10293;SDS011;5192;50.328;7.610;2023-02-26T15:08:25;1.23;;;1.13;;
10293;SDS011;5192;50.328;7.610;2023-02-26T15:18:14;1.80;;;0.90;;
10293;SDS011;5192;50.328;7.610;2023-02-26T15:23:47;0.97;;;0.80;;
10293;SDS011;5192;50.328;7.610;2023-02-26T15:26:29;2.17;;;0.90;;
10293;SDS011;5192;50.328;7.610;2023-02-26T15:29:11;1.57;;;1.00;;
10293;SDS011;5192;50.328;7.610;2023-02-26T15:32:20;1.30;;;0.77;;
10293;SDS011;5192;50.328;7.610;2023-02-26T15:35:01;2.20;;;1.00;;
10293;SDS011;5192;50.328;7.610;2023-02-26T15:37:47;1.73;;;1.00;;
10293;SDS011;5192;50.328;7.610;2023-02-26T15:40:29;1.00;;;0.80;;
10293;SDS011;5192;50.328;7.610;2023-02-26T15:43:00;1.97;;;0.90;;
10293;SDS011;5192;50.328;7.610;2023-02-26T15:45:33;1.03;;;0.83;;
10293;SDS011;5192;50.328;7.610;2023-02-26T15:48:15;1.60;;;0.90;;
10293;SDS011;5192;50.328;7.610;2023-02-26T15:50:58;1.20;;;1.00;;
10293;SDS011;5192;50.328;7.610;2023-02-26T15:53:29;2.50;;;1.30;;
10293;SDS011;5192;50.328;7.610;2023-02-26T15:56:02;1.50;;;1.00;;
10293;SDS011;5192;50.328;7.610;2023-02-26T15:58:45;1.53;;;0.90;;
10293;SDS011;5192;50.328;7.610;2023-02-26T16:01:19;1.37;;;0.93;;
10293;SDS011;5192;50.328;7.610;2023-02-26T16:03:49;1.20;;;0.70;;
10293;SDS011;5192;50.328;7.610;2023-02-26T16:06:39;1.87;;;1.20;;
10293;SDS011;5192;50.328;7.610;2023-02-26T16:09:14;1.00;;;0.90;;
10293;SDS011;5192;50.328;7.610;2023-02-26T16:11:44;1.87;;;0.90;;
10293;SDS011;5192;50.328;7.610;2023-02-26T16:14:20;1.53;;;0.70;;
10293;SDS011;5192;50.328;7.610;2023-02-26T16:16:51;1.03;;;0.90;;
10293;SDS011;5192;50.328;7.610;2023-02-26T16:19:26;1.37;;;0.83;;
10293;SDS011;5192;50.328;7.610;2023-02-26T16:25:11;1.17;;;0.70;;
10293;SDS011;5192;50.328;7.610;2023-02-26T16:27:42;0.93;;;0.70;;
10293;SDS011;5192;50.328;7.610;2023-02-26T16:30:17;2.30;;;0.93;;
10293;SDS011;5192;50.328;7.610;2023-02-26T16:32:49;2.07;;;0.70;;
10293;SDS011;5192;50.328;7.610;2023-02-26T16:35:20;1.07;;;0.80;;
10293;SDS011;5192;50.328;7.610;2023-02-26T16:37:53;3.10;;;1.00;;
10293;SDS011;5192;50.328;7.610;2023-02-26T16:43:05;1.50;;;1.03;;
10293;SDS011;5192;50.328;7.610;2023-02-26T16:46:07;3.70;;;1.27;;
10293;SDS011;5192;50.328;7.610;2023-02-26T16:51:28;2.30;;;1.00;;
10293;SDS011;5192;50.328;7.610;2023-02-26T16:54:00;1.40;;;1.00;;
10293;SDS011;5192;50.328;7.610;2023-02-26T16:56:45;1.83;;;0.93;;
10293;SDS011;5192;50.328;7.610;2023-02-26T16:59:27;2.23;;;0.83;;
10293;SDS011;5192;50.328;7.610;2023-02-26T17:04:45;1.03;;;0.73;;
10293;SDS011;5192;50.328;7.610;2023-02-26T17:07:15;1.90;;;0.90;;
10293;SDS011;5192;50.328;7.610;2023-02-26T17:10:18;1.43;;;0.80;;
10293;SDS011;5192;50.328;7.610;2023-02-26T17:13:06;1.20;;;1.10;;
10293;SDS011;5192;50.328;7.610;2023-02-26T17:15:49;0.97;;;0.67;;
10293;SDS011;5192;50.328;7.610;2023-02-26T17:18:15;2.67;;;1.00;;
10293;SDS011;5192;50.328;7.610;2023-02-26T17:20:43;1.00;;;0.90;;
10293;SDS011;5192;50.328;7.610;2023-02-26T17:23:11;1.87;;;0.70;;
10293;SDS011;5192;50.328;7.610;2023-02-26T17:25:42;1.30;;;0.80;;
10293;SDS011;5192;50.328;7.610;2023-02-26T17:28:17;2.90;;;0.90;;
10293;SDS011;5192;50.328;7.610;2023-02-26T17:30:49;1.20;;;0.80;;
10293;SDS011;5192;50.328;7.610;2023-02-26T17:33:16;1.93;;;1.00;;
10293;SDS011;5192;50.328;7.610;2023-02-26T17:35:43;1.27;;;1.00;;
10293;SDS011;5192;50.328;7.610;2023-02-26T17:38:10;1.53;;;0.80;;
10293;SDS011;5192;50.328;7.610;2023-02-26T17:40:39;1.27;;;0.90;;
10293;SDS011;5192;50.328;7.610;2023-02-26T17:43:08;1.70;;;0.90;;
10293;SDS011;5192;50.328;7.610;2023-02-26T17:45:36;1.50;;;0.90;;
10293;SDS011;5192;50.328;7.610;2023-02-26T17:48:04;1.30;;;1.00;;
10293;SDS011;5192;50.328;7.610;2023-02-26T17:53:21;2.33;;;1.10;;
10293;SDS011;5192;50.328;7.610;2023-02-26T17:56:19;3.70;;;1.07;;
10293;SDS011;5192;50.328;7.610;2023-02-26T17:59:07;3.23;;;1.07;;
10293;SDS011;5192;50.328;7.610;2023-02-26T18:01:37;1.37;;;0.90;;
10293;SDS011;5192;50.328;7.610;2023-02-26T18:04:07;2.37;;;0.90;;
10293;SDS011;5192;50.328;7.610;2023-02-26T18:06:34;2.53;;;1.00;;
10293;SDS011;5192;50.328;7.610;2023-02-26T18:09:02;2.03;;;1.00;;
10293;SDS011;5192;50.328;7.610;2023-02-26T18:11:31;2.40;;;1.27;;
10293;SDS011;5192;50.328;7.610;2023-02-26T18:14:00;2.20;;;1.30;;
10293;SDS011;5192;50.328;7.610;2023-02-26T18:16:29;1.23;;;1.03;;
10293;SDS011;5192;50.328;7.610;2023-02-26T18:19:15;1.23;;;1.00;;
10293;SDS011;5192;50.328;7.610;2023-02-26T18:21:41;1.90;;;1.17;;
10293;SDS011;5192;50.328;7.610;2023-02-26T18:24:09;2.77;;;1.37;;
10293;SDS011;5192;50.328;7.610;2023-02-26T18:26:35;1.30;;;0.80;;
10293;SDS011;5192;50.328;7.610;2023-02-26T18:29:02;1.73;;;1.20;;
10293;SDS011;5192;50.328;7.610;2023-02-26T18:31:29;1.27;;;1.00;;
10293;SDS011;5192;50.328;7.610;2023-02-26T18:34:00;1.37;;;1.10;;
10293;SDS011;5192;50.328;7.610;2023-02-26T18:36:28;1.77;;;1.20;;
10293;SDS011;5192;50.328;7.610;2023-02-26T18:39:06;2.10;;;1.20;;
10293;SDS011;5192;50.328;7.610;2023-02-26T18:41:36;1.50;;;1.17;;
10293;SDS011;5192;50.328;7.610;2023-02-26T18:44:02;2.37;;;1.17;;
10293;SDS011;5192;50.328;7.610;2023-02-26T18:46:29;1.43;;;1.00;;
10293;SDS011;5192;50.328;7.610;2023-02-26T18:48:56;1.70;;;1.13;;
10293;SDS011;5192;50.328;7.610;2023-02-26T18:51:24;3.53;;;1.57;;
10293;SDS011;5192;50.328;7.610;2023-02-26T18:53:50;1.70;;;1.20;;
10293;SDS011;5192;50.328;7.610;2023-02-26T18:56:18;2.10;;;1.33;;
10293;SDS011;5192;50.328;7.610;2023-02-26T18:58:46;2.07;;;1.40;;
10293;SDS011;5192;50.328;7.610;2023-02-26T19:01:14;2.43;;;1.73;;
10293;SDS011;5192;50.328;7.610;2023-02-26T19:03:40;2.80;;;1.90;;
10293;SDS011;5192;50.328;7.610;2023-02-26T19:06:08;4.97;;;2.43;;